sensor_id;sensor_type;location;lat;lon;timestamp;P1;durP1;ratioP1;P2;durP2;ratioP2
36629;SDS011;36256;42.154;23.002;2022-10-16T00:02:17;10.67;;;6.40;;
36629;SDS011;36256;42.154;23.002;2022-10-16T00:04:43;11.02;;;7.00;;
36629;SDS011;36256;42.154;23.002;2022-10-16T00:07:10;11.80;;;6.22;;
36629;SDS011;36256;42.154;23.002;2022-10-16T00:09:36;9.23;;;5.82;;
36629;SDS011;36256;42.154;23.002;2022-10-16T00:12:03;12.23;;;6.90;;
36629;SDS011;36256;42.154;23.002;2022-10-16T00:14:32;10.10;;;6.78;;
36629;SDS011;36256;42.154;23.002;2022-10-16T00:16:59;10.57;;;7.43;;
36629;SDS011;36256;42.154;23.002;2022-10-16T00:19:25;14.70;;;7.80;;
36629;SDS011;36256;42.154;23.002;2022-10-16T00:21:52;8.43;;;5.93;;
36629;SDS011;36256;42.154;23.002;2022-10-16T00:24:18;7.60;;;5.53;;
36629;SDS011;36256;42.154;23.002;2022-10-16T00:26:45;9.17;;;5.60;;
36629;SDS011;36256;42.154;23.002;2022-10-16T00:29:15;9.95;;;5.60;;
36629;SDS011;36256;42.154;23.002;2022-10-16T00:31:42;17.63;;;9.03;;
36629;SDS011;36256;42.154;23.002;2022-10-16T00:34:09;11.00;;;7.25;;
36629;SDS011;36256;42.154;23.002;2022-10-16T00:36:35;10.67;;;6.73;;
36629;SDS011;36256;42.154;23.002;2022-10-16T00:39:02;14.05;;;7.85;;
36629;SDS011;36256;42.154;23.002;2022-10-16T00:41:29;13.18;;;8.05;;
36629;SDS011;36256;42.154;23.002;2022-10-16T00:43:57;15.85;;;9.88;;
36629;SDS011;36256;42.154;23.002;2022-10-16T00:46:31;14.82;;;9.48;;
36629;SDS011;36256;42.154;23.002;2022-10-16T00:54:29;12.05;;;8.52;;
36629;SDS011;36256;42.154;23.002;2022-10-16T00:56:58;11.98;;;7.63;;
36629;SDS011;36256;42.154;23.002;2022-10-16T01:01:56;10.68;;;6.95;;
36629;SDS011;36256;42.154;23.002;2022-10-16T01:04:23;9.55;;;6.80;;
36629;SDS011;36256;42.154;23.002;2022-10-16T01:09:32;10.43;;;6.50;;
36629;SDS011;36256;42.154;23.002;2022-10-16T01:12:13;11.88;;;6.35;;
36629;SDS011;36256;42.154;23.002;2022-10-16T01:14:53;12.73;;;6.63;;
36629;SDS011;36256;42.154;23.002;2022-10-16T01:20:32;11.13;;;5.90;;
36629;SDS011;36256;42.154;23.002;2022-10-16T01:28:02;8.90;;;5.68;;
36629;SDS011;36256;42.154;23.002;2022-10-16T01:30:33;8.02;;;5.82;;
36629;SDS011;36256;42.154;23.002;2022-10-16T01:33:09;9.07;;;6.03;;
36629;SDS011;36256;42.154;23.002;2022-10-16T01:35:44;9.90;;;6.15;;
36629;SDS011;36256;42.154;23.002;2022-10-16T01:38:29;7.75;;;6.07;;
36629;SDS011;36256;42.154;23.002;2022-10-16T01:41:02;8.57;;;5.88;;
36629;SDS011;36256;42.154;23.002;2022-10-16T01:43:35;11.98;;;6.78;;
36629;SDS011;36256;42.154;23.002;2022-10-16T01:46:06;9.93;;;7.10;;
36629;SDS011;36256;42.154;23.002;2022-10-16T01:48:36;11.18;;;6.85;;
36629;SDS011;36256;42.154;23.002;2022-10-16T01:51:08;10.40;;;7.15;;
36629;SDS011;36256;42.154;23.002;2022-10-16T01:53:38;12.82;;;7.80;;
36629;SDS011;36256;42.154;23.002;2022-10-16T01:56:08;10.45;;;7.45;;
36629;SDS011;36256;42.154;23.002;2022-10-16T01:58:40;13.27;;;7.72;;
36629;SDS011;36256;42.154;23.002;2022-10-16T02:01:12;11.57;;;7.47;;
36629;SDS011;36256;42.154;23.002;2022-10-16T02:03:46;10.30;;;7.03;;
36629;SDS011;36256;42.154;23.002;2022-10-16T02:06:18;8.80;;;6.53;;
36629;SDS011;36256;42.154;23.002;2022-10-16T02:08:45;10.32;;;6.80;;
36629;SDS011;36256;42.154;23.002;2022-10-16T02:11:12;9.80;;;6.82;;
36629;SDS011;36256;42.154;23.002;2022-10-16T02:13:41;7.13;;;5.33;;
36629;SDS011;36256;42.154;23.002;2022-10-16T02:16:13;11.25;;;7.32;;
36629;SDS011;36256;42.154;23.002;2022-10-16T02:18:41;9.27;;;6.60;;
36629;SDS011;36256;42.154;23.002;2022-10-16T02:23:58;9.25;;;6.40;;
36629;SDS011;36256;42.154;23.002;2022-10-16T02:26:35;9.73;;;5.97;;
36629;SDS011;36256;42.154;23.002;2022-10-16T02:29:16;11.52;;;6.78;;
36629;SDS011;36256;42.154;23.002;2022-10-16T02:31:50;7.72;;;6.10;;
36629;SDS011;36256;42.154;23.002;2022-10-16T02:34:25;7.85;;;5.50;;
36629;SDS011;36256;42.154;23.002;2022-10-16T02:36:54;10.63;;;6.28;;
36629;SDS011;36256;42.154;23.002;2022-10-16T02:39:23;11.45;;;6.30;;
36629;SDS011;36256;42.154;23.002;2022-10-16T02:41:50;8.73;;;5.82;;
36629;SDS011;36256;42.154;23.002;2022-10-16T02:44:17;10.37;;;5.90;;
36629;SDS011;36256;42.154;23.002;2022-10-16T02:46:43;9.40;;;6.20;;
36629;SDS011;36256;42.154;23.002;2022-10-16T02:49:10;8.05;;;6.20;;
36629;SDS011;36256;42.154;23.002;2022-10-16T02:51:37;8.15;;;6.05;;
36629;SDS011;36256;42.154;23.002;2022-10-16T02:54:03;11.13;;;6.78;;
36629;SDS011;36256;42.154;23.002;2022-10-16T02:56:30;11.88;;;6.78;;
36629;SDS011;36256;42.154;23.002;2022-10-16T02:58:57;11.80;;;7.07;;
36629;SDS011;36256;42.154;23.002;2022-10-16T03:01:24;11.23;;;6.82;;
36629;SDS011;36256;42.154;23.002;2022-10-16T03:03:51;11.07;;;6.70;;
36629;SDS011;36256;42.154;23.002;2022-10-16T03:06:17;9.90;;;7.00;;
36629;SDS011;36256;42.154;23.002;2022-10-16T03:08:44;8.33;;;5.33;;
36629;SDS011;36256;42.154;23.002;2022-10-16T03:11:10;10.80;;;7.60;;
36629;SDS011;36256;42.154;23.002;2022-10-16T03:13:37;11.70;;;7.43;;
36629;SDS011;36256;42.154;23.002;2022-10-16T03:16:03;9.77;;;6.93;;
36629;SDS011;36256;42.154;23.002;2022-10-16T03:18:30;10.20;;;6.63;;
36629;SDS011;36256;42.154;23.002;2022-10-16T03:20:57;9.07;;;6.50;;
36629;SDS011;36256;42.154;23.002;2022-10-16T03:23:23;12.27;;;6.80;;
36629;SDS011;36256;42.154;23.002;2022-10-16T03:25:50;11.25;;;6.88;;
36629;SDS011;36256;42.154;23.002;2022-10-16T03:28:16;9.80;;;6.63;;
36629;SDS011;36256;42.154;23.002;2022-10-16T03:30:43;11.80;;;7.13;;
36629;SDS011;36256;42.154;23.002;2022-10-16T03:33:10;9.07;;;6.65;;
36629;SDS011;36256;42.154;23.002;2022-10-16T03:35:37;10.60;;;6.97;;
36629;SDS011;36256;42.154;23.002;2022-10-16T03:38:03;9.50;;;6.53;;
36629;SDS011;36256;42.154;23.002;2022-10-16T03:40:30;11.90;;;6.03;;
36629;SDS011;36256;42.154;23.002;2022-10-16T03:42:58;9.70;;;6.28;;
36629;SDS011;36256;42.154;23.002;2022-10-16T04:04:17;10.55;;;7.60;;
36629;SDS011;36256;42.154;23.002;2022-10-16T04:06:44;12.02;;;7.15;;
36629;SDS011;36256;42.154;23.002;2022-10-16T04:09:10;9.23;;;7.37;;
36629;SDS011;36256;42.154;23.002;2022-10-16T04:11:37;9.38;;;7.00;;
36629;SDS011;36256;42.154;23.002;2022-10-16T04:14:03;12.88;;;7.80;;
36629;SDS011;36256;42.154;23.002;2022-10-16T04:16:30;10.65;;;7.25;;
36629;SDS011;36256;42.154;23.002;2022-10-16T04:18:57;14.70;;;7.50;;
36629;SDS011;36256;42.154;23.002;2022-10-16T04:21:23;10.50;;;7.27;;
36629;SDS011;36256;42.154;23.002;2022-10-16T04:23:50;13.30;;;8.27;;
36629;SDS011;36256;42.154;23.002;2022-10-16T04:26:16;14.48;;;8.93;;
36629;SDS011;36256;42.154;23.002;2022-10-16T04:28:43;15.80;;;8.32;;
36629;SDS011;36256;42.154;23.002;2022-10-16T04:31:10;12.18;;;7.78;;
36629;SDS011;36256;42.154;23.002;2022-10-16T04:33:36;12.40;;;8.00;;
36629;SDS011;36256;42.154;23.002;2022-10-16T04:36:03;10.43;;;6.90;;
36629;SDS011;36256;42.154;23.002;2022-10-16T04:38:30;12.00;;;7.85;;
36629;SDS011;36256;42.154;23.002;2022-10-16T04:40:57;11.75;;;7.10;;
36629;SDS011;36256;42.154;23.002;2022-10-16T04:43:23;9.30;;;5.57;;
36629;SDS011;36256;42.154;23.002;2022-10-16T04:45:50;8.73;;;6.40;;
36629;SDS011;36256;42.154;23.002;2022-10-16T04:48:17;10.32;;;7.13;;
36629;SDS011;36256;42.154;23.002;2022-10-16T04:50:44;10.20;;;7.70;;
36629;SDS011;36256;42.154;23.002;2022-10-16T04:53:11;16.70;;;10.48;;
36629;SDS011;36256;42.154;23.002;2022-10-16T04:55:37;12.52;;;8.00;;
36629;SDS011;36256;42.154;23.002;2022-10-16T04:58:04;15.40;;;10.73;;
36629;SDS011;36256;42.154;23.002;2022-10-16T05:00:31;16.23;;;10.18;;
36629;SDS011;36256;42.154;23.002;2022-10-16T05:02:58;23.92;;;16.70;;
36629;SDS011;36256;42.154;23.002;2022-10-16T05:05:27;17.58;;;12.25;;
36629;SDS011;36256;42.154;23.002;2022-10-16T05:10:20;25.92;;;17.23;;
36629;SDS011;36256;42.154;23.002;2022-10-16T05:12:47;26.15;;;17.10;;
36629;SDS011;36256;42.154;23.002;2022-10-16T05:15:13;24.67;;;15.32;;
36629;SDS011;36256;42.154;23.002;2022-10-16T05:17:40;14.90;;;9.95;;
36629;SDS011;36256;42.154;23.002;2022-10-16T05:20:10;12.82;;;8.35;;
36629;SDS011;36256;42.154;23.002;2022-10-16T05:22:38;14.32;;;9.13;;
36629;SDS011;36256;42.154;23.002;2022-10-16T05:25:04;12.50;;;8.35;;
36629;SDS011;36256;42.154;23.002;2022-10-16T05:27:31;11.75;;;8.80;;
36629;SDS011;36256;42.154;23.002;2022-10-16T05:29:58;10.30;;;8.00;;
36629;SDS011;36256;42.154;23.002;2022-10-16T05:32:25;12.00;;;8.23;;
36629;SDS011;36256;42.154;23.002;2022-10-16T05:34:51;15.07;;;10.27;;
36629;SDS011;36256;42.154;23.002;2022-10-16T05:37:18;11.45;;;9.23;;
36629;SDS011;36256;42.154;23.002;2022-10-16T05:39:44;13.80;;;9.75;;
36629;SDS011;36256;42.154;23.002;2022-10-16T05:42:11;14.90;;;9.73;;
36629;SDS011;36256;42.154;23.002;2022-10-16T05:44:37;15.57;;;10.38;;
36629;SDS011;36256;42.154;23.002;2022-10-16T05:47:04;14.40;;;9.25;;
36629;SDS011;36256;42.154;23.002;2022-10-16T05:49:31;27.23;;;16.10;;
36629;SDS011;36256;42.154;23.002;2022-10-16T05:51:57;20.40;;;13.23;;
36629;SDS011;36256;42.154;23.002;2022-10-16T05:54:24;15.43;;;9.50;;
36629;SDS011;36256;42.154;23.002;2022-10-16T05:56:50;11.97;;;8.20;;
36629;SDS011;36256;42.154;23.002;2022-10-16T05:59:17;11.47;;;7.30;;
36629;SDS011;36256;42.154;23.002;2022-10-16T06:01:43;9.10;;;7.07;;
36629;SDS011;36256;42.154;23.002;2022-10-16T06:04:10;11.00;;;6.97;;
36629;SDS011;36256;42.154;23.002;2022-10-16T06:06:41;11.57;;;7.07;;
36629;SDS011;36256;42.154;23.002;2022-10-16T06:09:08;12.90;;;7.32;;
36629;SDS011;36256;42.154;23.002;2022-10-16T06:11:35;10.85;;;7.10;;
36629;SDS011;36256;42.154;23.002;2022-10-16T06:14:03;15.50;;;7.43;;
36629;SDS011;36256;42.154;23.002;2022-10-16T06:16:33;10.77;;;8.32;;
36629;SDS011;36256;42.154;23.002;2022-10-16T06:19:02;9.57;;;7.43;;
36629;SDS011;36256;42.154;23.002;2022-10-16T06:21:32;12.20;;;7.38;;
36629;SDS011;36256;42.154;23.002;2022-10-16T06:23:58;14.52;;;8.90;;
36629;SDS011;36256;42.154;23.002;2022-10-16T06:26:26;25.80;;;12.30;;
36629;SDS011;36256;42.154;23.002;2022-10-16T06:28:55;27.95;;;13.18;;
36629;SDS011;36256;42.154;23.002;2022-10-16T06:31:23;16.88;;;10.57;;
36629;SDS011;36256;42.154;23.002;2022-10-16T06:33:55;11.13;;;6.78;;
36629;SDS011;36256;42.154;23.002;2022-10-16T06:36:22;11.85;;;7.72;;
36629;SDS011;36256;42.154;23.002;2022-10-16T06:41:17;8.45;;;6.30;;
36629;SDS011;36256;42.154;23.002;2022-10-16T06:43:45;10.80;;;6.18;;
36629;SDS011;36256;42.154;23.002;2022-10-16T06:46:13;9.20;;;6.25;;
36629;SDS011;36256;42.154;23.002;2022-10-16T06:48:41;8.32;;;6.28;;
36629;SDS011;36256;42.154;23.002;2022-10-16T06:51:09;7.47;;;6.30;;
36629;SDS011;36256;42.154;23.002;2022-10-16T06:53:40;12.07;;;7.30;;
36629;SDS011;36256;42.154;23.002;2022-10-16T06:56:28;10.93;;;7.38;;
36629;SDS011;36256;42.154;23.002;2022-10-16T06:58:58;10.13;;;7.10;;
36629;SDS011;36256;42.154;23.002;2022-10-16T07:01:25;9.95;;;7.03;;
36629;SDS011;36256;42.154;23.002;2022-10-16T07:03:54;10.40;;;7.88;;
36629;SDS011;36256;42.154;23.002;2022-10-16T07:06:21;10.23;;;7.22;;
36629;SDS011;36256;42.154;23.002;2022-10-16T07:08:49;9.88;;;6.80;;
36629;SDS011;36256;42.154;23.002;2022-10-16T07:11:17;12.40;;;6.60;;
36629;SDS011;36256;42.154;23.002;2022-10-16T07:13:46;9.63;;;6.25;;
36629;SDS011;36256;42.154;23.002;2022-10-16T07:16:20;11.32;;;6.90;;
36629;SDS011;36256;42.154;23.002;2022-10-16T07:18:55;10.35;;;7.05;;
36629;SDS011;36256;42.154;23.002;2022-10-16T07:21:30;10.93;;;6.68;;
36629;SDS011;36256;42.154;23.002;2022-10-16T07:24:02;14.38;;;6.65;;
36629;SDS011;36256;42.154;23.002;2022-10-16T07:26:32;11.27;;;6.43;;
36629;SDS011;36256;42.154;23.002;2022-10-16T07:29:00;18.13;;;9.00;;
36629;SDS011;36256;42.154;23.002;2022-10-16T07:31:27;14.52;;;6.93;;
36629;SDS011;36256;42.154;23.002;2022-10-16T07:33:54;12.38;;;7.43;;
36629;SDS011;36256;42.154;23.002;2022-10-16T07:36:21;14.37;;;7.10;;
36629;SDS011;36256;42.154;23.002;2022-10-16T07:38:48;34.95;;;12.43;;
36629;SDS011;36256;42.154;23.002;2022-10-16T07:41:19;11.60;;;7.20;;
36629;SDS011;36256;42.154;23.002;2022-10-16T07:43:46;12.77;;;7.35;;
36629;SDS011;36256;42.154;23.002;2022-10-16T07:46:15;9.45;;;6.18;;
36629;SDS011;36256;42.154;23.002;2022-10-16T07:48:42;12.80;;;6.05;;
36629;SDS011;36256;42.154;23.002;2022-10-16T07:51:13;14.65;;;7.25;;
36629;SDS011;36256;42.154;23.002;2022-10-16T07:53:41;10.30;;;6.53;;
36629;SDS011;36256;42.154;23.002;2022-10-16T07:56:07;11.77;;;6.68;;
36629;SDS011;36256;42.154;23.002;2022-10-16T07:58:34;12.68;;;6.13;;
36629;SDS011;36256;42.154;23.002;2022-10-16T08:01:05;11.68;;;6.00;;
36629;SDS011;36256;42.154;23.002;2022-10-16T08:03:33;10.30;;;5.47;;
36629;SDS011;36256;42.154;23.002;2022-10-16T08:06:00;12.30;;;5.63;;
36629;SDS011;36256;42.154;23.002;2022-10-16T08:08:28;13.75;;;5.63;;
36629;SDS011;36256;42.154;23.002;2022-10-16T08:10:55;9.07;;;5.97;;
36629;SDS011;36256;42.154;23.002;2022-10-16T08:13:22;12.43;;;6.10;;
36629;SDS011;36256;42.154;23.002;2022-10-16T08:15:48;7.80;;;5.65;;
36629;SDS011;36256;42.154;23.002;2022-10-16T08:18:15;11.05;;;5.32;;
36629;SDS011;36256;42.154;23.002;2022-10-16T08:20:42;17.23;;;11.20;;
36629;SDS011;36256;42.154;23.002;2022-10-16T08:23:10;9.32;;;5.40;;
36629;SDS011;36256;42.154;23.002;2022-10-16T08:25:38;7.82;;;5.30;;
36629;SDS011;36256;42.154;23.002;2022-10-16T08:28:06;7.70;;;5.28;;
36629;SDS011;36256;42.154;23.002;2022-10-16T08:30:34;9.65;;;4.90;;
36629;SDS011;36256;42.154;23.002;2022-10-16T08:33:01;19.05;;;5.38;;
36629;SDS011;36256;42.154;23.002;2022-10-16T08:35:28;10.10;;;4.95;;
36629;SDS011;36256;42.154;23.002;2022-10-16T08:37:55;7.03;;;5.03;;
36629;SDS011;36256;42.154;23.002;2022-10-16T08:48:49;9.98;;;4.75;;
36629;SDS011;36256;42.154;23.002;2022-10-16T08:51:24;9.48;;;6.25;;
36629;SDS011;36256;42.154;23.002;2022-10-16T08:53:55;8.52;;;4.65;;
36629;SDS011;36256;42.154;23.002;2022-10-16T08:56:23;8.82;;;4.97;;
36629;SDS011;36256;42.154;23.002;2022-10-16T08:58:51;12.85;;;4.72;;
36629;SDS011;36256;42.154;23.002;2022-10-16T09:01:33;10.80;;;4.53;;
36629;SDS011;36256;42.154;23.002;2022-10-16T09:12:42;11.02;;;4.50;;
36629;SDS011;36256;42.154;23.002;2022-10-16T09:23:38;9.38;;;4.85;;
36629;SDS011;36256;42.154;23.002;2022-10-16T09:26:05;6.75;;;4.53;;
36629;SDS011;36256;42.154;23.002;2022-10-16T09:28:39;11.40;;;5.10;;
36629;SDS011;36256;42.154;23.002;2022-10-16T09:31:24;10.10;;;5.28;;
36629;SDS011;36256;42.154;23.002;2022-10-16T09:33:52;13.43;;;5.50;;
36629;SDS011;36256;42.154;23.002;2022-10-16T09:36:22;8.60;;;4.80;;
36629;SDS011;36256;42.154;23.002;2022-10-16T09:38:50;10.90;;;5.30;;
36629;SDS011;36256;42.154;23.002;2022-10-16T09:41:18;9.73;;;5.13;;
36629;SDS011;36256;42.154;23.002;2022-10-16T09:46:28;11.65;;;5.30;;
36629;SDS011;36256;42.154;23.002;2022-10-16T09:48:56;7.45;;;4.82;;
36629;SDS011;36256;42.154;23.002;2022-10-16T09:51:26;6.72;;;4.57;;
36629;SDS011;36256;42.154;23.002;2022-10-16T09:53:56;14.13;;;5.38;;
36629;SDS011;36256;42.154;23.002;2022-10-16T09:56:28;8.82;;;4.88;;
36629;SDS011;36256;42.154;23.002;2022-10-16T09:59:45;8.70;;;5.05;;
36629;SDS011;36256;42.154;23.002;2022-10-16T10:02:00;8.27;;;4.63;;
36629;SDS011;36256;42.154;23.002;2022-10-16T10:04:37;7.25;;;4.65;;
36629;SDS011;36256;42.154;23.002;2022-10-16T10:07:28;9.30;;;4.38;;
36629;SDS011;36256;42.154;23.002;2022-10-16T10:10:02;5.68;;;4.07;;
36629;SDS011;36256;42.154;23.002;2022-10-16T10:12:32;7.05;;;4.30;;
36629;SDS011;36256;42.154;23.002;2022-10-16T10:15:04;6.00;;;3.83;;
36629;SDS011;36256;42.154;23.002;2022-10-16T10:17:47;5.43;;;3.93;;
36629;SDS011;36256;42.154;23.002;2022-10-16T10:20:22;6.35;;;3.70;;
36629;SDS011;36256;42.154;23.002;2022-10-16T10:22:49;5.63;;;4.10;;
36629;SDS011;36256;42.154;23.002;2022-10-16T10:30:56;7.30;;;4.18;;
36629;SDS011;36256;42.154;23.002;2022-10-16T10:36:16;8.75;;;3.78;;
36629;SDS011;36256;42.154;23.002;2022-10-16T10:38:58;6.13;;;3.80;;
36629;SDS011;36256;42.154;23.002;2022-10-16T10:41:35;8.13;;;3.60;;
36629;SDS011;36256;42.154;23.002;2022-10-16T10:44:33;7.30;;;3.90;;
36629;SDS011;36256;42.154;23.002;2022-10-16T10:52:36;8.35;;;3.83;;
36629;SDS011;36256;42.154;23.002;2022-10-16T11:06:25;5.20;;;3.80;;
36629;SDS011;36256;42.154;23.002;2022-10-16T11:08:53;14.00;;;4.25;;
36629;SDS011;36256;42.154;23.002;2022-10-16T11:11:38;13.18;;;3.70;;
36629;SDS011;36256;42.154;23.002;2022-10-16T11:17:28;6.10;;;3.95;;
36629;SDS011;36256;42.154;23.002;2022-10-16T11:20:02;7.97;;;3.22;;
36629;SDS011;36256;42.154;23.002;2022-10-16T11:22:44;5.88;;;3.55;;
36629;SDS011;36256;42.154;23.002;2022-10-16T11:25:21;5.85;;;3.63;;
36629;SDS011;36256;42.154;23.002;2022-10-16T11:27:56;3.85;;;3.10;;
36629;SDS011;36256;42.154;23.002;2022-10-16T11:30:31;4.32;;;3.50;;
36629;SDS011;36256;42.154;23.002;2022-10-16T11:35:39;5.18;;;3.45;;
36629;SDS011;36256;42.154;23.002;2022-10-16T11:43:48;5.03;;;3.25;;
36629;SDS011;36256;42.154;23.002;2022-10-16T11:46:37;5.53;;;3.72;;
36629;SDS011;36256;42.154;23.002;2022-10-16T11:49:26;8.50;;;4.22;;
36629;SDS011;36256;42.154;23.002;2022-10-16T11:57:32;21.00;;;9.25;;
36629;SDS011;36256;42.154;23.002;2022-10-16T12:05:05;4.28;;;2.90;;
36629;SDS011;36256;42.154;23.002;2022-10-16T12:07:52;6.35;;;3.13;;
36629;SDS011;36256;42.154;23.002;2022-10-16T12:10:23;5.47;;;3.40;;
36629;SDS011;36256;42.154;23.002;2022-10-16T12:12:53;5.90;;;3.00;;
36629;SDS011;36256;42.154;23.002;2022-10-16T12:18:00;4.03;;;3.13;;
36629;SDS011;36256;42.154;23.002;2022-10-16T12:20:28;3.50;;;2.80;;
36629;SDS011;36256;42.154;23.002;2022-10-16T12:22:58;3.88;;;2.40;;
36629;SDS011;36256;42.154;23.002;2022-10-16T12:25:28;6.13;;;3.42;;
36629;SDS011;36256;42.154;23.002;2022-10-16T12:30:40;5.65;;;2.85;;
36629;SDS011;36256;42.154;23.002;2022-10-16T12:35:49;4.00;;;2.72;;
36629;SDS011;36256;42.154;23.002;2022-10-16T12:38:18;7.32;;;3.15;;
36629;SDS011;36256;42.154;23.002;2022-10-16T12:40:46;5.05;;;3.10;;
36629;SDS011;36256;42.154;23.002;2022-10-16T12:43:35;7.38;;;3.35;;
36629;SDS011;36256;42.154;23.002;2022-10-16T12:48:37;8.83;;;3.73;;
36629;SDS011;36256;42.154;23.002;2022-10-16T12:51:22;6.72;;;3.33;;
36629;SDS011;36256;42.154;23.002;2022-10-16T12:53:59;3.83;;;2.90;;
36629;SDS011;36256;42.154;23.002;2022-10-16T13:11:12;8.15;;;3.47;;
36629;SDS011;36256;42.154;23.002;2022-10-16T13:13:56;6.30;;;3.42;;
36629;SDS011;36256;42.154;23.002;2022-10-16T13:28:14;5.20;;;3.35;;
36629;SDS011;36256;42.154;23.002;2022-10-16T13:30:53;4.63;;;3.70;;
36629;SDS011;36256;42.154;23.002;2022-10-16T13:33:35;8.18;;;3.75;;
36629;SDS011;36256;42.154;23.002;2022-10-16T13:36:04;8.75;;;3.63;;
36629;SDS011;36256;42.154;23.002;2022-10-16T13:38:33;7.28;;;3.28;;
36629;SDS011;36256;42.154;23.002;2022-10-16T13:41:03;7.68;;;3.70;;
36629;SDS011;36256;42.154;23.002;2022-10-16T13:43:33;4.80;;;3.22;;
36629;SDS011;36256;42.154;23.002;2022-10-16T13:46:07;5.70;;;3.70;;
36629;SDS011;36256;42.154;23.002;2022-10-16T13:48:40;7.70;;;3.80;;
36629;SDS011;36256;42.154;23.002;2022-10-16T13:51:15;5.93;;;3.70;;
36629;SDS011;36256;42.154;23.002;2022-10-16T13:53:43;5.78;;;3.30;;
36629;SDS011;36256;42.154;23.002;2022-10-16T13:56:18;7.35;;;4.00;;
36629;SDS011;36256;42.154;23.002;2022-10-16T13:58:46;6.00;;;4.10;;
36629;SDS011;36256;42.154;23.002;2022-10-16T14:01:25;6.13;;;3.50;;
36629;SDS011;36256;42.154;23.002;2022-10-16T14:04:02;10.23;;;4.20;;
36629;SDS011;36256;42.154;23.002;2022-10-16T14:06:32;7.53;;;3.50;;
36629;SDS011;36256;42.154;23.002;2022-10-16T14:11:33;7.78;;;3.97;;
36629;SDS011;36256;42.154;23.002;2022-10-16T14:14:05;7.20;;;3.60;;
36629;SDS011;36256;42.154;23.002;2022-10-16T14:16:31;7.13;;;4.05;;
36629;SDS011;36256;42.154;23.002;2022-10-16T14:19:02;6.68;;;3.72;;
36629;SDS011;36256;42.154;23.002;2022-10-16T14:21:33;8.20;;;3.92;;
36629;SDS011;36256;42.154;23.002;2022-10-16T14:24:10;5.55;;;3.75;;
36629;SDS011;36256;42.154;23.002;2022-10-16T14:26:50;9.43;;;4.10;;
36629;SDS011;36256;42.154;23.002;2022-10-16T14:29:18;5.88;;;3.85;;
36629;SDS011;36256;42.154;23.002;2022-10-16T14:31:56;5.72;;;3.60;;
36629;SDS011;36256;42.154;23.002;2022-10-16T14:36:56;4.38;;;3.70;;
36629;SDS011;36256;42.154;23.002;2022-10-16T14:39:27;5.57;;;3.63;;
36629;SDS011;36256;42.154;23.002;2022-10-16T14:41:55;4.95;;;3.35;;
36629;SDS011;36256;42.154;23.002;2022-10-16T14:44:27;7.80;;;3.75;;
36629;SDS011;36256;42.154;23.002;2022-10-16T14:46:57;4.90;;;3.70;;
36629;SDS011;36256;42.154;23.002;2022-10-16T14:49:25;7.38;;;5.35;;
36629;SDS011;36256;42.154;23.002;2022-10-16T14:51:54;7.85;;;4.63;;
36629;SDS011;36256;42.154;23.002;2022-10-16T14:54:21;9.82;;;5.28;;
36629;SDS011;36256;42.154;23.002;2022-10-16T14:56:49;6.28;;;4.53;;
36629;SDS011;36256;42.154;23.002;2022-10-16T14:59:31;6.45;;;4.18;;
36629;SDS011;36256;42.154;23.002;2022-10-16T15:04:53;9.65;;;5.10;;
36629;SDS011;36256;42.154;23.002;2022-10-16T15:07:21;7.78;;;4.50;;
36629;SDS011;36256;42.154;23.002;2022-10-16T15:09:47;9.30;;;5.85;;
36629;SDS011;36256;42.154;23.002;2022-10-16T15:12:15;11.63;;;4.93;;
36629;SDS011;36256;42.154;23.002;2022-10-16T15:14:42;7.18;;;4.22;;
36629;SDS011;36256;42.154;23.002;2022-10-16T15:17:09;9.52;;;3.80;;
36629;SDS011;36256;42.154;23.002;2022-10-16T15:19:37;6.38;;;3.65;;
36629;SDS011;36256;42.154;23.002;2022-10-16T15:22:04;6.82;;;3.83;;
36629;SDS011;36256;42.154;23.002;2022-10-16T15:24:31;13.40;;;5.35;;
36629;SDS011;36256;42.154;23.002;2022-10-16T15:26:57;13.65;;;6.90;;
36629;SDS011;36256;42.154;23.002;2022-10-16T15:29:24;10.02;;;5.65;;
36629;SDS011;36256;42.154;23.002;2022-10-16T15:31:50;12.02;;;5.35;;
36629;SDS011;36256;42.154;23.002;2022-10-16T15:34:17;14.48;;;5.70;;
36629;SDS011;36256;42.154;23.002;2022-10-16T15:36:45;11.85;;;5.53;;
36629;SDS011;36256;42.154;23.002;2022-10-16T15:39:13;6.90;;;4.53;;
36629;SDS011;36256;42.154;23.002;2022-10-16T15:41:42;7.78;;;4.68;;
36629;SDS011;36256;42.154;23.002;2022-10-16T15:44:09;8.25;;;5.40;;
36629;SDS011;36256;42.154;23.002;2022-10-16T15:46:36;9.88;;;4.22;;
36629;SDS011;36256;42.154;23.002;2022-10-16T15:49:03;6.22;;;4.40;;
36629;SDS011;36256;42.154;23.002;2022-10-16T15:51:30;6.20;;;3.30;;
36629;SDS011;36256;42.154;23.002;2022-10-16T15:53:59;15.77;;;3.83;;
36629;SDS011;36256;42.154;23.002;2022-10-16T15:56:28;6.28;;;3.25;;
36629;SDS011;36256;42.154;23.002;2022-10-16T15:58:55;9.32;;;2.90;;
36629;SDS011;36256;42.154;23.002;2022-10-16T16:01:23;4.97;;;3.10;;
36629;SDS011;36256;42.154;23.002;2022-10-16T16:03:52;5.90;;;2.90;;
36629;SDS011;36256;42.154;23.002;2022-10-16T16:06:19;13.23;;;2.88;;
36629;SDS011;36256;42.154;23.002;2022-10-16T16:08:47;7.53;;;3.00;;
36629;SDS011;36256;42.154;23.002;2022-10-16T16:11:14;5.67;;;2.83;;
36629;SDS011;36256;42.154;23.002;2022-10-16T16:13:42;7.63;;;3.03;;
36629;SDS011;36256;42.154;23.002;2022-10-16T16:16:09;4.90;;;3.13;;
36629;SDS011;36256;42.154;23.002;2022-10-16T16:18:40;7.20;;;3.15;;
36629;SDS011;36256;42.154;23.002;2022-10-16T16:21:09;6.75;;;2.90;;
36629;SDS011;36256;42.154;23.002;2022-10-16T16:23:37;4.85;;;3.10;;
36629;SDS011;36256;42.154;23.002;2022-10-16T16:26:11;7.78;;;2.97;;
36629;SDS011;36256;42.154;23.002;2022-10-16T16:28:40;4.80;;;3.15;;
36629;SDS011;36256;42.154;23.002;2022-10-16T16:31:08;8.50;;;3.42;;
36629;SDS011;36256;42.154;23.002;2022-10-16T16:33:35;7.30;;;3.38;;
36629;SDS011;36256;42.154;23.002;2022-10-16T16:36:02;5.20;;;3.22;;
36629;SDS011;36256;42.154;23.002;2022-10-16T16:38:39;7.95;;;3.15;;
36629;SDS011;36256;42.154;23.002;2022-10-16T16:43:39;4.93;;;2.83;;
36629;SDS011;36256;42.154;23.002;2022-10-16T16:46:05;6.13;;;3.30;;
36629;SDS011;36256;42.154;23.002;2022-10-16T16:48:32;11.07;;;3.05;;
36629;SDS011;36256;42.154;23.002;2022-10-16T16:51:03;6.57;;;3.13;;
36629;SDS011;36256;42.154;23.002;2022-10-16T16:53:30;9.15;;;3.25;;
36629;SDS011;36256;42.154;23.002;2022-10-16T16:56:02;8.13;;;3.53;;
36629;SDS011;36256;42.154;23.002;2022-10-16T16:58:30;6.35;;;3.13;;
36629;SDS011;36256;42.154;23.002;2022-10-16T17:00:59;12.02;;;3.80;;
36629;SDS011;36256;42.154;23.002;2022-10-16T17:06:12;6.88;;;3.42;;
36629;SDS011;36256;42.154;23.002;2022-10-16T17:08:46;7.75;;;3.72;;
36629;SDS011;36256;42.154;23.002;2022-10-16T17:11:18;8.00;;;3.88;;
36629;SDS011;36256;42.154;23.002;2022-10-16T17:13:47;7.00;;;4.28;;
36629;SDS011;36256;42.154;23.002;2022-10-16T17:16:24;6.97;;;3.95;;
36629;SDS011;36256;42.154;23.002;2022-10-16T17:19:05;11.10;;;3.83;;
36629;SDS011;36256;42.154;23.002;2022-10-16T17:21:33;7.10;;;3.60;;
36629;SDS011;36256;42.154;23.002;2022-10-16T17:24:00;8.80;;;3.58;;
36629;SDS011;36256;42.154;23.002;2022-10-16T17:26:28;6.38;;;3.60;;
36629;SDS011;36256;42.154;23.002;2022-10-16T17:28:56;5.95;;;3.42;;
36629;SDS011;36256;42.154;23.002;2022-10-16T17:31:29;7.63;;;3.42;;
36629;SDS011;36256;42.154;23.002;2022-10-16T17:33:58;7.32;;;3.47;;
36629;SDS011;36256;42.154;23.002;2022-10-16T17:36:25;10.10;;;3.35;;